sensor_id;sensor_type;location;lat;lon;timestamp;temperature;humidity
11214;DHT22;5664;48.606;13.456;2024-02-21T00:00:41;18.60;85.50
11214;DHT22;5664;48.606;13.456;2024-02-21T00:03:07;18.60;85.50
11214;DHT22;5664;48.606;13.456;2024-02-21T00:05:32;18.50;85.50
11214;DHT22;5664;48.606;13.456;2024-02-21T00:08:01;18.50;85.50
11214;DHT22;5664;48.606;13.456;2024-02-21T00:10:28;18.50;85.50
11214;DHT22;5664;48.606;13.456;2024-02-21T00:12:54;18.50;85.50
11214;DHT22;5664;48.606;13.456;2024-02-21T00:15:19;18.50;85.60
11214;DHT22;5664;48.606;13.456;2024-02-21T00:17:45;18.50;85.60
11214;DHT22;5664;48.606;13.456;2024-02-21T00:20:11;18.50;85.70
11214;DHT22;5664;48.606;13.456;2024-02-21T00:22:36;18.40;85.50
11214;DHT22;5664;48.606;13.456;2024-02-21T00:25:02;18.40;85.60
11214;DHT22;5664;48.606;13.456;2024-02-21T00:27:28;18.40;85.60
11214;DHT22;5664;48.606;13.456;2024-02-21T00:29:53;18.40;85.60
11214;DHT22;5664;48.606;13.456;2024-02-21T00:32:19;18.30;85.50
11214;DHT22;5664;48.606;13.456;2024-02-21T00:34:44;18.30;85.60
11214;DHT22;5664;48.606;13.456;2024-02-21T00:37:10;18.30;85.60
11214;DHT22;5664;48.606;13.456;2024-02-21T00:39:35;18.30;85.60
11214;DHT22;5664;48.606;13.456;2024-02-21T00:42:02;18.30;85.60
11214;DHT22;5664;48.606;13.456;2024-02-21T00:44:28;18.30;85.60
11214;DHT22;5664;48.606;13.456;2024-02-21T00:46:53;17.60;85.30
11214;DHT22;5664;48.606;13.456;2024-02-21T00:49:19;18.30;85.70
11214;DHT22;5664;48.606;13.456;2024-02-21T00:51:44;18.20;85.60
11214;DHT22;5664;48.606;13.456;2024-02-21T00:54:09;18.20;85.70
11214;DHT22;5664;48.606;13.456;2024-02-21T00:56:35;18.20;85.70
11214;DHT22;5664;48.606;13.456;2024-02-21T00:59:00;18.20;85.70
11214;DHT22;5664;48.606;13.456;2024-02-21T01:01:26;18.20;85.70
11214;DHT22;5664;48.606;13.456;2024-02-21T01:03:51;18.20;85.70
11214;DHT22;5664;48.606;13.456;2024-02-21T01:06:20;18.10;85.80
11214;DHT22;5664;48.606;13.456;2024-02-21T01:08:46;18.10;85.70
11214;DHT22;5664;48.606;13.456;2024-02-21T01:11:12;18.10;85.70
11214;DHT22;5664;48.606;13.456;2024-02-21T01:13:37;18.10;85.80
11214;DHT22;5664;48.606;13.456;2024-02-21T01:16:03;18.10;85.80
11214;DHT22;5664;48.606;13.456;2024-02-21T01:18:28;18.10;85.80
11214;DHT22;5664;48.606;13.456;2024-02-21T01:20:54;18.00;85.70
11214;DHT22;5664;48.606;13.456;2024-02-21T01:23:19;18.00;85.80
11214;DHT22;5664;48.606;13.456;2024-02-21T01:25:44;18.00;85.80
11214;DHT22;5664;48.606;13.456;2024-02-21T01:28:10;18.00;85.80
11214;DHT22;5664;48.606;13.456;2024-02-21T01:30:35;18.00;85.80
11214;DHT22;5664;48.606;13.456;2024-02-21T01:33:01;17.90;85.90
11214;DHT22;5664;48.606;13.456;2024-02-21T01:35:26;17.90;85.80
11214;DHT22;5664;48.606;13.456;2024-02-21T01:37:52;17.90;85.80
11214;DHT22;5664;48.606;13.456;2024-02-21T01:40:17;17.90;85.80
11214;DHT22;5664;48.606;13.456;2024-02-21T01:42:43;17.90;85.80
11214;DHT22;5664;48.606;13.456;2024-02-21T01:45:08;17.90;85.80
11214;DHT22;5664;48.606;13.456;2024-02-21T01:47:34;17.90;85.80
11214;DHT22;5664;48.606;13.456;2024-02-21T01:50:00;17.90;86.00
11214;DHT22;5664;48.606;13.456;2024-02-21T01:52:27;17.80;85.80
11214;DHT22;5664;48.606;13.456;2024-02-21T01:54:53;17.80;85.80
11214;DHT22;5664;48.606;13.456;2024-02-21T01:57:19;17.80;85.80
11214;DHT22;5664;48.606;13.456;2024-02-21T01:59:44;17.80;85.10
11214;DHT22;5664;48.606;13.456;2024-02-21T02:02:10;17.80;85.80
11214;DHT22;5664;48.606;13.456;2024-02-21T02:04:37;17.80;85.80
11214;DHT22;5664;48.606;13.456;2024-02-21T02:07:03;17.80;85.80
11214;DHT22;5664;48.606;13.456;2024-02-21T02:09:31;17.80;85.80
11214;DHT22;5664;48.606;13.456;2024-02-21T02:11:57;17.70;85.70
11214;DHT22;5664;48.606;13.456;2024-02-21T02:14:23;17.70;85.80
11214;DHT22;5664;48.606;13.456;2024-02-21T02:16:49;17.70;85.80
11214;DHT22;5664;48.606;13.456;2024-02-21T02:19:14;17.60;85.70
11214;DHT22;5664;48.606;13.456;2024-02-21T02:21:42;17.70;85.80
11214;DHT22;5664;48.606;13.456;2024-02-21T02:24:11;17.90;86.70
11214;DHT22;5664;48.606;13.456;2024-02-21T02:26:37;17.60;85.70
11214;DHT22;5664;48.606;13.456;2024-02-21T02:29:02;17.60;85.80
11214;DHT22;5664;48.606;13.456;2024-02-21T02:31:28;17.60;85.80
11214;DHT22;5664;48.606;13.456;2024-02-21T02:33:53;17.60;85.80
11214;DHT22;5664;48.606;13.456;2024-02-21T02:36:19;17.60;85.80
11214;DHT22;5664;48.606;13.456;2024-02-21T02:38:44;17.60;85.80
11214;DHT22;5664;48.606;13.456;2024-02-21T02:41:10;17.60;85.90
11214;DHT22;5664;48.606;13.456;2024-02-21T02:43:35;17.60;85.90
11214;DHT22;5664;48.606;13.456;2024-02-21T02:46:02;17.50;85.90
11214;DHT22;5664;48.606;13.456;2024-02-21T02:48:27;17.50;85.90
11214;DHT22;5664;48.606;13.456;2024-02-21T02:50:53;17.50;85.90
11214;DHT22;5664;48.606;13.456;2024-02-21T02:53:18;17.50;85.90
11214;DHT22;5664;48.606;13.456;2024-02-21T02:55:44;17.50;85.90
11214;DHT22;5664;48.606;13.456;2024-02-21T02:58:09;17.50;85.90
11214;DHT22;5664;48.606;13.456;2024-02-21T03:00:35;17.50;85.90
11214;DHT22;5664;48.606;13.456;2024-02-21T03:03:01;17.40;85.90
11214;DHT22;5664;48.606;13.456;2024-02-21T03:05:29;17.40;85.20
11214;DHT22;5664;48.606;13.456;2024-02-21T03:07:54;17.40;86.00
11214;DHT22;5664;48.606;13.456;2024-02-21T03:10:20;17.40;85.90
11214;DHT22;5664;48.606;13.456;2024-02-21T03:12:46;17.40;85.90
11214;DHT22;5664;48.606;13.456;2024-02-21T03:15:12;17.40;85.30
11214;DHT22;5664;48.606;13.456;2024-02-21T03:17:37;17.40;86.00
11214;DHT22;5664;48.606;13.456;2024-02-21T03:20:03;17.30;85.90
11214;DHT22;5664;48.606;13.456;2024-02-21T03:22:35;17.30;85.90
11214;DHT22;5664;48.606;13.456;2024-02-21T03:25:01;17.30;86.00
11214;DHT22;5664;48.606;13.456;2024-02-21T03:27:26;17.30;85.90
11214;DHT22;5664;48.606;13.456;2024-02-21T03:29:52;17.30;86.00
11214;DHT22;5664;48.606;13.456;2024-02-21T03:32:17;17.30;85.90
11214;DHT22;5664;48.606;13.456;2024-02-21T03:34:43;17.30;86.00
11214;DHT22;5664;48.606;13.456;2024-02-21T03:37:08;17.30;86.00
11214;DHT22;5664;48.606;13.456;2024-02-21T03:39:34;17.20;86.00
11214;DHT22;5664;48.606;13.456;2024-02-21T03:41:59;17.20;86.00
11214;DHT22;5664;48.606;13.456;2024-02-21T03:44:30;17.20;85.30
11214;DHT22;5664;48.606;13.456;2024-02-21T03:46:55;17.20;86.00
11214;DHT22;5664;48.606;13.456;2024-02-21T03:49:20;17.20;86.00
11214;DHT22;5664;48.606;13.456;2024-02-21T03:51:46;17.20;86.10
11214;DHT22;5664;48.606;13.456;2024-02-21T03:54:12;17.20;86.00
11214;DHT22;5664;48.606;13.456;2024-02-21T03:56:37;17.20;85.40
11214;DHT22;5664;48.606;13.456;2024-02-21T03:59:05;17.20;86.10
11214;DHT22;5664;48.606;13.456;2024-02-21T04:01:31;17.10;86.00
11214;DHT22;5664;48.606;13.456;2024-02-21T04:03:57;17.10;86.00
11214;DHT22;5664;48.606;13.456;2024-02-21T04:06:22;17.10;86.10
11214;DHT22;5664;48.606;13.456;2024-02-21T04:08:47;17.10;85.40
11214;DHT22;5664;48.606;13.456;2024-02-21T04:11:13;17.10;85.40
11214;DHT22;5664;48.606;13.456;2024-02-21T04:13:38;17.10;86.00
11214;DHT22;5664;48.606;13.456;2024-02-21T04:16:04;17.10;85.40
11214;DHT22;5664;48.606;13.456;2024-02-21T04:18:31;17.10;86.10
11214;DHT22;5664;48.606;13.456;2024-02-21T04:20:56;17.10;86.00
11214;DHT22;5664;48.606;13.456;2024-02-21T04:23:22;17.00;85.90
11214;DHT22;5664;48.606;13.456;2024-02-21T04:25:47;17.10;86.10
11214;DHT22;5664;48.606;13.456;2024-02-21T04:28:12;17.00;85.30
11214;DHT22;5664;48.606;13.456;2024-02-21T04:30:38;17.00;86.00
11214;DHT22;5664;48.606;13.456;2024-02-21T04:33:03;17.00;86.00
11214;DHT22;5664;48.606;13.456;2024-02-21T04:35:29;17.00;86.00
11214;DHT22;5664;48.606;13.456;2024-02-21T04:37:55;17.00;86.10
11214;DHT22;5664;48.606;13.456;2024-02-21T04:40:20;16.90;86.00
11214;DHT22;5664;48.606;13.456;2024-02-21T04:42:45;16.90;86.00
11214;DHT22;5664;48.606;13.456;2024-02-21T04:45:11;16.90;85.40
11214;DHT22;5664;48.606;13.456;2024-02-21T04:47:37;16.90;85.40
11214;DHT22;5664;48.606;13.456;2024-02-21T04:50:02;16.90;85.40
11214;DHT22;5664;48.606;13.456;2024-02-21T04:52:28;16.90;86.10
11214;DHT22;5664;48.606;13.456;2024-02-21T04:54:53;16.90;86.10
11214;DHT22;5664;48.606;13.456;2024-02-21T04:57:18;16.90;86.10
11214;DHT22;5664;48.606;13.456;2024-02-21T04:59:44;16.90;86.10
11214;DHT22;5664;48.606;13.456;2024-02-21T05:02:10;16.80;78.10
11214;DHT22;5664;48.606;13.456;2024-02-21T05:04:36;16.60;67.20
11214;DHT22;5664;48.606;13.456;2024-02-21T05:07:03;16.30;62.80
11214;DHT22;5664;48.606;13.456;2024-02-21T05:09:29;16.10;60.90
11214;DHT22;5664;48.606;13.456;2024-02-21T05:11:54;15.90;60.00
11214;DHT22;5664;48.606;13.456;2024-02-21T05:14:20;15.60;59.70
11214;DHT22;5664;48.606;13.456;2024-02-21T05:16:45;15.50;59.80
11214;DHT22;5664;48.606;13.456;2024-02-21T05:19:11;15.20;60.30
11214;DHT22;5664;48.606;13.456;2024-02-21T05:21:36;15.20;63.30
11214;DHT22;5664;48.606;13.456;2024-02-21T05:24:02;15.20;67.30
11214;DHT22;5664;48.606;13.456;2024-02-21T05:26:27;15.30;70.60
11214;DHT22;5664;48.606;13.456;2024-02-21T05:28:53;15.40;72.70
11214;DHT22;5664;48.606;13.456;2024-02-21T05:31:19;15.50;73.20
11214;DHT22;5664;48.606;13.456;2024-02-21T05:33:44;15.50;74.70
11214;DHT22;5664;48.606;13.456;2024-02-21T05:36:10;15.60;74.50
11214;DHT22;5664;48.606;13.456;2024-02-21T05:38:36;15.70;75.60
11214;DHT22;5664;48.606;13.456;2024-02-21T05:41:01;15.70;75.80
11214;DHT22;5664;48.606;13.456;2024-02-21T05:43:27;15.70;76.00
11214;DHT22;5664;48.606;13.456;2024-02-21T05:45:52;16.00;76.50
11214;DHT22;5664;48.606;13.456;2024-02-21T05:48:18;15.80;76.50
11214;DHT22;5664;48.606;13.456;2024-02-21T05:50:43;15.80;76.70
11214;DHT22;5664;48.606;13.456;2024-02-21T05:53:09;15.80;76.20
11214;DHT22;5664;48.606;13.456;2024-02-21T05:55:35;15.80;77.00
11214;DHT22;5664;48.606;13.456;2024-02-21T05:58:01;16.20;77.40
11214;DHT22;5664;48.606;13.456;2024-02-21T06:00:27;15.90;77.40
11214;DHT22;5664;48.606;13.456;2024-02-21T06:02:53;15.90;77.50
11214;DHT22;5664;48.606;13.456;2024-02-21T06:05:18;15.90;77.60
11214;DHT22;5664;48.606;13.456;2024-02-21T06:07:44;15.90;77.80
11214;DHT22;5664;48.606;13.456;2024-02-21T06:10:09;15.90;77.90
11214;DHT22;5664;48.606;13.456;2024-02-21T06:12:35;16.30;78.20
11214;DHT22;5664;48.606;13.456;2024-02-21T06:15:00;15.90;78.10
11214;DHT22;5664;48.606;13.456;2024-02-21T06:17:26;15.90;78.20
11214;DHT22;5664;48.606;13.456;2024-02-21T06:19:54;15.90;78.30
11214;DHT22;5664;48.606;13.456;2024-02-21T06:22:20;15.90;78.40
11214;DHT22;5664;48.606;13.456;2024-02-21T06:24:45;15.90;78.50
11214;DHT22;5664;48.606;13.456;2024-02-21T06:27:11;15.90;78.60
11214;DHT22;5664;48.606;13.456;2024-02-21T06:29:36;15.90;78.70
11214;DHT22;5664;48.606;13.456;2024-02-21T06:32:02;15.90;78.80
11214;DHT22;5664;48.606;13.456;2024-02-21T06:34:27;15.90;78.90
11214;DHT22;5664;48.606;13.456;2024-02-21T06:36:53;15.90;78.30
11214;DHT22;5664;48.606;13.456;2024-02-21T06:39:18;15.90;79.10
11214;DHT22;5664;48.606;13.456;2024-02-21T06:41:44;16.00;79.30
11214;DHT22;5664;48.606;13.456;2024-02-21T06:44:09;16.00;79.30
11214;DHT22;5664;48.606;13.456;2024-02-21T06:46:35;15.90;79.40
11214;DHT22;5664;48.606;13.456;2024-02-21T06:49:01;15.90;79.40
11214;DHT22;5664;48.606;13.456;2024-02-21T06:51:26;15.90;79.50
11214;DHT22;5664;48.606;13.456;2024-02-21T06:53:52;16.00;79.60
11214;DHT22;5664;48.606;13.456;2024-02-21T06:56:18;15.90;79.00
11214;DHT22;5664;48.606;13.456;2024-02-21T06:58:44;16.00;79.80
11214;DHT22;5664;48.606;13.456;2024-02-21T07:01:09;16.00;79.20
11214;DHT22;5664;48.606;13.456;2024-02-21T07:03:35;15.90;79.90
11214;DHT22;5664;48.606;13.456;2024-02-21T07:06:00;15.90;80.00
11214;DHT22;5664;48.606;13.456;2024-02-21T07:08:26;15.90;79.40
11214;DHT22;5664;48.606;13.456;2024-02-21T07:10:51;15.90;80.20
11214;DHT22;5664;48.606;13.456;2024-02-21T07:13:17;16.00;80.30
11214;DHT22;5664;48.606;13.456;2024-02-21T07:15:42;15.90;80.30
11214;DHT22;5664;48.606;13.456;2024-02-21T07:18:08;16.00;80.50
11214;DHT22;5664;48.606;13.456;2024-02-21T07:20:33;15.90;80.50
11214;DHT22;5664;48.606;13.456;2024-02-21T07:23:02;15.90;80.60
11214;DHT22;5664;48.606;13.456;2024-02-21T07:25:27;15.90;80.10
11214;DHT22;5664;48.606;13.456;2024-02-21T07:27:53;15.90;80.90
11214;DHT22;5664;48.606;13.456;2024-02-21T07:30:18;16.00;81.00
11214;DHT22;5664;48.606;13.456;2024-02-21T07:32:44;15.90;81.10
11214;DHT22;5664;48.606;13.456;2024-02-21T07:35:09;15.90;81.10
11214;DHT22;5664;48.606;13.456;2024-02-21T07:37:38;15.90;81.20
11214;DHT22;5664;48.606;13.456;2024-02-21T07:40:11;16.00;80.70
11214;DHT22;5664;48.606;13.456;2024-02-21T07:42:37;16.00;81.40
11214;DHT22;5664;48.606;13.456;2024-02-21T07:45:02;16.00;81.40
11214;DHT22;5664;48.606;13.456;2024-02-21T07:47:28;16.10;81.30
11214;DHT22;5664;48.606;13.456;2024-02-21T07:49:54;16.20;82.10
11214;DHT22;5664;48.606;13.456;2024-02-21T07:52:19;16.20;81.30
11214;DHT22;5664;48.606;13.456;2024-02-21T07:54:45;16.30;81.40
11214;DHT22;5664;48.606;13.456;2024-02-21T07:57:10;16.40;81.50
11214;DHT22;5664;48.606;13.456;2024-02-21T07:59:36;16.50;81.50
11214;DHT22;5664;48.606;13.456;2024-02-21T08:02:01;16.60;81.80
11214;DHT22;5664;48.606;13.456;2024-02-21T08:04:27;16.60;81.70
11214;DHT22;5664;48.606;13.456;2024-02-21T08:06:53;16.70;81.80
11214;DHT22;5664;48.606;13.456;2024-02-21T08:09:19;16.70;81.70
11214;DHT22;5664;48.606;13.456;2024-02-21T08:11:44;16.70;81.90
11214;DHT22;5664;48.606;13.456;2024-02-21T08:14:10;16.70;82.20
11214;DHT22;5664;48.606;13.456;2024-02-21T08:16:35;16.80;82.60
11214;DHT22;5664;48.606;13.456;2024-02-21T08:19:01;16.80;82.50
11214;DHT22;5664;48.606;13.456;2024-02-21T08:21:29;16.80;82.70
11214;DHT22;5664;48.606;13.456;2024-02-21T08:23:55;16.80;82.80
11214;DHT22;5664;48.606;13.456;2024-02-21T08:26:20;16.80;82.70
11214;DHT22;5664;48.606;13.456;2024-02-21T08:28:45;16.90;82.50
11214;DHT22;5664;48.606;13.456;2024-02-21T08:31:11;16.90;82.60
11214;DHT22;5664;48.606;13.456;2024-02-21T08:33:43;16.90;82.70
11214;DHT22;5664;48.606;13.456;2024-02-21T08:36:08;16.90;82.70
11214;DHT22;5664;48.606;13.456;2024-02-21T08:38:34;16.80;82.10
11214;DHT22;5664;48.606;13.456;2024-02-21T08:41:00;16.90;82.90
11214;DHT22;5664;48.606;13.456;2024-02-21T08:43:25;16.90;83.00
11214;DHT22;5664;48.606;13.456;2024-02-21T08:45:51;16.90;83.00
11214;DHT22;5664;48.606;13.456;2024-02-21T08:48:16;16.90;83.20
11214;DHT22;5664;48.606;13.456;2024-02-21T08:50:44;17.00;83.40
11214;DHT22;5664;48.606;13.456;2024-02-21T08:53:10;16.90;82.70
11214;DHT22;5664;48.606;13.456;2024-02-21T08:55:36;17.00;83.40
11214;DHT22;5664;48.606;13.456;2024-02-21T08:58:04;17.10;83.30
11214;DHT22;5664;48.606;13.456;2024-02-21T09:00:30;17.20;83.20
11214;DHT22;5664;48.606;13.456;2024-02-21T09:02:56;17.20;83.20
11214;DHT22;5664;48.606;13.456;2024-02-21T09:05:21;17.30;84.00
11214;DHT22;5664;48.606;13.456;2024-02-21T09:07:47;17.30;83.90
11214;DHT22;5664;48.606;13.456;2024-02-21T09:10:15;17.40;83.40
11214;DHT22;5664;48.606;13.456;2024-02-21T09:12:41;17.40;83.70
11214;DHT22;5664;48.606;13.456;2024-02-21T09:15:06;17.40;82.90
11214;DHT22;5664;48.606;13.456;2024-02-21T09:17:32;17.40;83.60
11214;DHT22;5664;48.606;13.456;2024-02-21T09:19:57;17.40;83.60
11214;DHT22;5664;48.606;13.456;2024-02-21T09:22:27;17.50;83.70
11214;DHT22;5664;48.606;13.456;2024-02-21T09:24:53;17.50;84.00
11214;DHT22;5664;48.606;13.456;2024-02-21T09:27:18;17.50;84.10
11214;DHT22;5664;48.606;13.456;2024-02-21T09:29:44;17.60;84.70
11214;DHT22;5664;48.606;13.456;2024-02-21T09:32:09;17.60;85.10
11214;DHT22;5664;48.606;13.456;2024-02-21T09:34:35;17.60;85.20
11214;DHT22;5664;48.606;13.456;2024-02-21T09:37:00;17.70;85.40
11214;DHT22;5664;48.606;13.456;2024-02-21T09:39:26;17.70;85.40
11214;DHT22;5664;48.606;13.456;2024-02-21T09:41:53;17.80;85.70
11214;DHT22;5664;48.606;13.456;2024-02-21T09:44:20;17.80;85.70
11214;DHT22;5664;48.606;13.456;2024-02-21T09:51:44;18.30;85.80
11214;DHT22;5664;48.606;13.456;2024-02-21T09:54:10;18.50;86.30
11214;DHT22;5664;48.606;13.456;2024-02-21T09:56:36;18.90;88.30
11214;DHT22;5664;48.606;13.456;2024-02-21T09:59:01;19.30;87.60
11214;DHT22;5664;48.606;13.456;2024-02-21T10:01:30;19.80;84.60
11214;DHT22;5664;48.606;13.456;2024-02-21T10:03:57;20.00;81.90
11214;DHT22;5664;48.606;13.456;2024-02-21T10:06:22;20.30;81.10
11214;DHT22;5664;48.606;13.456;2024-02-21T10:08:51;20.40;80.80
11214;DHT22;5664;48.606;13.456;2024-02-21T10:11:24;20.60;80.80
11214;DHT22;5664;48.606;13.456;2024-02-21T10:13:49;20.70;80.70
11214;DHT22;5664;48.606;13.456;2024-02-21T10:16:15;20.80;80.40
11214;DHT22;5664;48.606;13.456;2024-02-21T10:18:40;21.00;80.00
11214;DHT22;5664;48.606;13.456;2024-02-21T10:21:07;21.30;80.50
11214;DHT22;5664;48.606;13.456;2024-02-21T10:23:45;22.00;79.60
11214;DHT22;5664;48.606;13.456;2024-02-21T10:26:11;22.90;74.30
11214;DHT22;5664;48.606;13.456;2024-02-21T10:28:37;24.20;68.50
11214;DHT22;5664;48.606;13.456;2024-02-21T10:31:03;25.50;63.20
11214;DHT22;5664;48.606;13.456;2024-02-21T10:33:29;26.90;58.80
11214;DHT22;5664;48.606;13.456;2024-02-21T10:36:05;28.00;55.80
11214;DHT22;5664;48.606;13.456;2024-02-21T10:38:31;29.00;53.30
11214;DHT22;5664;48.606;13.456;2024-02-21T10:40:57;29.80;51.20
11214;DHT22;5664;48.606;13.456;2024-02-21T10:43:24;30.30;50.10
11214;DHT22;5664;48.606;13.456;2024-02-21T10:45:50;30.70;49.10
11214;DHT22;5664;48.606;13.456;2024-02-21T10:48:18;30.90;48.20
11214;DHT22;5664;48.606;13.456;2024-02-21T10:50:56;30.90;48.00
11214;DHT22;5664;48.606;13.456;2024-02-21T10:53:36;30.60;47.80
11214;DHT22;5664;48.606;13.456;2024-02-21T10:58:47;28.90;50.20
11214;DHT22;5664;48.606;13.456;2024-02-21T11:01:13;27.90;52.20
11214;DHT22;5664;48.606;13.456;2024-02-21T11:03:43;27.10;54.00
11214;DHT22;5664;48.606;13.456;2024-02-21T11:06:10;26.40;55.60
11214;DHT22;5664;48.606;13.456;2024-02-21T11:08:36;25.90;55.00
11214;DHT22;5664;48.606;13.456;2024-02-21T11:11:01;25.10;45.80
11214;DHT22;5664;48.606;13.456;2024-02-21T11:13:36;24.30;43.80
11214;DHT22;5664;48.606;13.456;2024-02-21T11:16:08;23.50;44.00
11214;DHT22;5664;48.606;13.456;2024-02-21T11:18:35;22.80;44.40
11214;DHT22;5664;48.606;13.456;2024-02-21T11:21:00;22.30;45.00
11214;DHT22;5664;48.606;13.456;2024-02-21T11:23:26;21.70;44.50
11214;DHT22;5664;48.606;13.456;2024-02-21T11:25:52;21.30;46.00
11214;DHT22;5664;48.606;13.456;2024-02-21T11:28:25;21.00;47.00
11214;DHT22;5664;48.606;13.456;2024-02-21T11:30:50;20.70;47.90
11214;DHT22;5664;48.606;13.456;2024-02-21T11:33:16;20.50;48.60
11214;DHT22;5664;48.606;13.456;2024-02-21T11:35:42;20.30;48.50
11214;DHT22;5664;48.606;13.456;2024-02-21T11:38:11;20.10;48.30
11214;DHT22;5664;48.606;13.456;2024-02-21T11:40:40;19.90;48.30
11214;DHT22;5664;48.606;13.456;2024-02-21T11:43:05;19.70;48.60
11214;DHT22;5664;48.606;13.456;2024-02-21T11:45:31;19.60;48.80
11214;DHT22;5664;48.606;13.456;2024-02-21T11:47:57;19.50;49.30
11214;DHT22;5664;48.606;13.456;2024-02-21T11:50:26;19.40;49.70
11214;DHT22;5664;48.606;13.456;2024-02-21T11:52:53;19.60;51.80
11214;DHT22;5664;48.606;13.456;2024-02-21T11:55:19;19.80;53.20
11214;DHT22;5664;48.606;13.456;2024-02-21T11:57:44;20.10;54.60
11214;DHT22;5664;48.606;13.456;2024-02-21T12:00:14;20.50;55.80
11214;DHT22;5664;48.606;13.456;2024-02-21T12:02:40;20.80;56.60
11214;DHT22;5664;48.606;13.456;2024-02-21T12:05:05;21.10;57.40
11214;DHT22;5664;48.606;13.456;2024-02-21T12:07:31;21.30;58.00
11214;DHT22;5664;48.606;13.456;2024-02-21T12:09:58;21.50;57.90
11214;DHT22;5664;48.606;13.456;2024-02-21T12:12:24;21.80;58.80
11214;DHT22;5664;48.606;13.456;2024-02-21T12:14:56;22.00;59.10
11214;DHT22;5664;48.606;13.456;2024-02-21T12:17:23;22.20;59.30
11214;DHT22;5664;48.606;13.456;2024-02-21T12:19:50;22.30;59.00
11214;DHT22;5664;48.606;13.456;2024-02-21T12:22:18;22.50;59.60
11214;DHT22;5664;48.606;13.456;2024-02-21T12:24:44;22.50;55.90
11214;DHT22;5664;48.606;13.456;2024-02-21T12:27:13;22.30;50.10
11214;DHT22;5664;48.606;13.456;2024-02-21T12:29:38;22.10;47.10
11214;DHT22;5664;48.606;13.456;2024-02-21T12:32:04;21.80;47.20
11214;DHT22;5664;48.606;13.456;2024-02-21T12:34:29;21.60;47.40
11214;DHT22;5664;48.606;13.456;2024-02-21T12:36:58;21.50;47.30
11214;DHT22;5664;48.606;13.456;2024-02-21T12:39:23;21.30;47.30
11214;DHT22;5664;48.606;13.456;2024-02-21T12:41:49;21.20;47.70
11214;DHT22;5664;48.606;13.456;2024-02-21T12:44:14;21.10;47.50
11214;DHT22;5664;48.606;13.456;2024-02-21T12:46:41;21.00;47.80
11214;DHT22;5664;48.606;13.456;2024-02-21T12:49:07;20.90;48.00
11214;DHT22;5664;48.606;13.456;2024-02-21T12:51:35;20.90;47.00
11214;DHT22;5664;48.606;13.456;2024-02-21T12:54:01;20.80;47.20
11214;DHT22;5664;48.606;13.456;2024-02-21T12:56:28;20.70;47.80
11214;DHT22;5664;48.606;13.456;2024-02-21T12:58:55;20.70;48.20
11214;DHT22;5664;48.606;13.456;2024-02-21T13:01:20;20.60;48.00
11214;DHT22;5664;48.606;13.456;2024-02-21T13:03:46;20.70;49.80
11214;DHT22;5664;48.606;13.456;2024-02-21T13:06:12;20.60;50.80
11214;DHT22;5664;48.606;13.456;2024-02-21T13:08:37;21.10;52.20
11214;DHT22;5664;48.606;13.456;2024-02-21T13:11:03;21.30;53.40
11214;DHT22;5664;48.606;13.456;2024-02-21T13:13:29;21.60;54.40
11214;DHT22;5664;48.606;13.456;2024-02-21T13:15:54;21.80;55.20
11214;DHT22;5664;48.606;13.456;2024-02-21T13:18:20;22.00;55.70
11214;DHT22;5664;48.606;13.456;2024-02-21T13:20:45;22.10;56.10
11214;DHT22;5664;48.606;13.456;2024-02-21T13:23:11;21.80;56.10
11214;DHT22;5664;48.606;13.456;2024-02-21T13:25:36;22.40;56.30
11214;DHT22;5664;48.606;13.456;2024-02-21T13:28:02;22.50;56.40
11214;DHT22;5664;48.606;13.456;2024-02-21T13:30:28;22.60;56.60
11214;DHT22;5664;48.606;13.456;2024-02-21T13:32:54;22.70;56.60
11214;DHT22;5664;48.606;13.456;2024-02-21T13:35:20;22.80;56.80
11214;DHT22;5664;48.606;13.456;2024-02-21T13:37:46;22.90;57.00
11214;DHT22;5664;48.606;13.456;2024-02-21T13:40:11;22.90;57.00
11214;DHT22;5664;48.606;13.456;2024-02-21T13:42:38;23.00;56.70
11214;DHT22;5664;48.606;13.456;2024-02-21T13:45:04;23.10;56.80
11214;DHT22;5664;48.606;13.456;2024-02-21T13:47:33;23.30;56.70
11214;DHT22;5664;48.606;13.456;2024-02-21T13:49:59;23.60;56.20
11214;DHT22;5664;48.606;13.456;2024-02-21T13:52:25;23.80;55.80
11214;DHT22;5664;48.606;13.456;2024-02-21T13:54:54;24.00;55.20
11214;DHT22;5664;48.606;13.456;2024-02-21T13:57:19;24.20;55.00
11214;DHT22;5664;48.606;13.456;2024-02-21T13:59:45;24.40;54.30
11214;DHT22;5664;48.606;13.456;2024-02-21T14:02:10;24.60;53.20
11214;DHT22;5664;48.606;13.456;2024-02-21T14:04:36;24.80;52.90
11214;DHT22;5664;48.606;13.456;2024-02-21T14:07:01;25.00;53.00
11214;DHT22;5664;48.606;13.456;2024-02-21T14:09:27;25.10;53.00
11214;DHT22;5664;48.606;13.456;2024-02-21T14:11:55;25.30;52.90
11214;DHT22;5664;48.606;13.456;2024-02-21T14:14:20;25.30;52.80
11214;DHT22;5664;48.606;13.456;2024-02-21T14:16:46;25.40;52.70
11214;DHT22;5664;48.606;13.456;2024-02-21T14:19:13;25.50;52.50
11214;DHT22;5664;48.606;13.456;2024-02-21T14:21:38;25.50;52.20
11214;DHT22;5664;48.606;13.456;2024-02-21T14:24:04;25.50;52.00
11214;DHT22;5664;48.606;13.456;2024-02-21T14:26:30;25.30;52.00
11214;DHT22;5664;48.606;13.456;2024-02-21T14:28:56;25.20;52.70
11214;DHT22;5664;48.606;13.456;2024-02-21T14:31:22;25.00;53.20
11214;DHT22;5664;48.606;13.456;2024-02-21T14:33:47;24.70;53.50
11214;DHT22;5664;48.606;13.456;2024-02-21T14:36:13;24.50;54.00
11214;DHT22;5664;48.606;13.456;2024-02-21T14:38:40;24.30;54.50
11214;DHT22;5664;48.606;13.456;2024-02-21T14:41:06;24.20;54.90
11214;DHT22;5664;48.606;13.456;2024-02-21T14:43:32;24.00;55.10
11214;DHT22;5664;48.606;13.456;2024-02-21T14:45:57;23.90;55.30
11214;DHT22;5664;48.606;13.456;2024-02-21T14:48:23;24.00;55.30
11214;DHT22;5664;48.606;13.456;2024-02-21T14:50:48;24.00;55.00
11214;DHT22;5664;48.606;13.456;2024-02-21T14:53:14;24.00;55.10
11214;DHT22;5664;48.606;13.456;2024-02-21T14:55:40;24.00;55.30
11214;DHT22;5664;48.606;13.456;2024-02-21T14:58:07;24.00;55.50
11214;DHT22;5664;48.606;13.456;2024-02-21T15:00:33;23.90;55.80
11214;DHT22;5664;48.606;13.456;2024-02-21T15:02:59;23.90;56.00
11214;DHT22;5664;48.606;13.456;2024-02-21T15:05:24;23.80;56.10
11214;DHT22;5664;48.606;13.456;2024-02-21T15:07:50;23.70;56.20
11214;DHT22;5664;48.606;13.456;2024-02-21T15:10:15;23.70;56.30
11214;DHT22;5664;48.606;13.456;2024-02-21T15:12:43;23.60;56.60
11214;DHT22;5664;48.606;13.456;2024-02-21T15:15:10;23.60;56.60
11214;DHT22;5664;48.606;13.456;2024-02-21T15:17:35;23.50;55.50
11214;DHT22;5664;48.606;13.456;2024-02-21T15:20:01;23.40;55.70
11214;DHT22;5664;48.606;13.456;2024-02-21T15:22:26;23.40;56.00
11214;DHT22;5664;48.606;13.456;2024-02-21T15:24:52;23.30;56.50
11214;DHT22;5664;48.606;13.456;2024-02-21T15:27:18;23.30;57.00
11214;DHT22;5664;48.606;13.456;2024-02-21T15:29:43;23.10;57.00